»·PEaware :: N659T KDVO-KSBP

N659T :: KDVO-KSBP

FLIGHT INFORMATION

Flight Status: Arrived
Operator: Privately registered:
United States
More flights under this callsign
Pilot: Donald L. (2830)
Aircraft: PIPER PA-24 COMMANCHE
(PA24)
More flights by this aircraft type
Origin: KDVO Gnoss
United States
Destination: KSBP San Luis Co Regl
United States
More flights between these airports :: More routes between these airports
Route: +PYE V27 CALIS CREPE
File this flight plan on PilotEdge
Remarks:
Altitude:
(Current/Filed)
9,000ft
Speed:
(Current/Filed)
150kts
Departed: 04-May-18 04:56 PM
Arrived: 04-May-18 06:25 PM
Distance/Time
Traveled:
197nm/1:29
Distance/Time
To Go:
Arrived

Flight Plot

Page will automatically refresh every two minutes.

Flight plan parsing failed; only flown route is shown


Map Options




Map Legend


Flown Route
Filed Route
Departure Airport
Arrival Airport
Navaid (VOR, NDB)
Fix

Horizontal Profiles

Position Reports

Time Latitude Longitude Heading Altitude Ground
Speed
04-May-18 16:47 38.140657 -122.556301 238 5ft 0kts
04-May-18 16:48 38.140657 -122.556301 238 5ft 0kts
04-May-18 16:49 38.140655 -122.556305 238 5ft 0kts
04-May-18 16:50 38.141371 -122.557047 325 5ft 6kts
04-May-18 16:51 38.142975 -122.557273 329 5ft 8kts
04-May-18 16:52 38.145655 -122.559228 328 5ft 12kts
04-May-18 16:53 38.147076 -122.560330 328 5ft 0kts
04-May-18 16:54 38.147274 -122.560372 34 5ft 0kts
04-May-18 16:55 38.145233 -122.558325 149 5ft 72kts
04-May-18 16:56 38.121100 -122.539949 179 1473ft 106kts
04-May-18 16:57 38.109609 -122.568886 278 2989ft 104kts
04-May-18 16:58 38.087694 -122.598258 210 4139ft 129kts
04-May-18 16:59 38.055971 -122.621695 212 5326ft 135kts
04-May-18 17:00 38.022700 -122.645271 200 6511ft 138kts
04-May-18 17:01 37.985319 -122.658144 194 7632ft 138kts
04-May-18 17:02 37.947411 -122.668846 194 8602ft 141kts
04-May-18 17:03 37.906485 -122.680374 191 9042ft 166kts
04-May-18 17:04 37.858782 -122.692481 193 9002ft 177kts
04-May-18 17:05 37.810470 -122.705666 193 8997ft 177kts
04-May-18 17:06 37.761526 -122.713534 175 8992ft 178kts
04-May-18 17:07 37.712191 -122.706632 169 8990ft 179kts
04-May-18 17:08 37.664879 -122.688012 158 8989ft 177kts
04-May-18 17:10 37.618404 -122.667174 158 8988ft 177kts
04-May-18 17:11 37.571959 -122.646302 158 8986ft 177kts
04-May-18 17:12 37.525387 -122.625056 158 8984ft 177kts
04-May-18 17:13 37.479050 -122.603697 157 8982ft 177kts
04-May-18 17:14 37.432633 -122.582042 157 8982ft 177kts
04-May-18 17:15 37.386409 -122.560257 157 8983ft 177kts
04-May-18 17:16 37.340279 -122.538172 157 8983ft 177kts
04-May-18 17:17 37.294180 -122.515872 157 8984ft 177kts
04-May-18 17:18 37.248029 -122.493219 157 8991ft 177kts
04-May-18 17:19 37.202070 -122.470369 157 8994ft 178kts
04-May-18 17:20 37.156028 -122.449117 158 9092ft 176kts
04-May-18 17:21 37.109810 -122.427463 158 9091ft 178kts
04-May-18 17:22 37.067230 -122.397416 140 9093ft 176kts
04-May-18 17:23 37.028026 -122.359934 139 9094ft 177kts
04-May-18 17:24 36.988832 -122.322763 141 9095ft 177kts
04-May-18 17:25 36.949066 -122.286288 141 9095ft 177kts
04-May-18 17:26 36.908980 -122.249956 143 9090ft 178kts
04-May-18 17:27 36.868592 -122.214477 143 9095ft 177kts
04-May-18 17:28 36.828124 -122.178640 143 9094ft 178kts
04-May-18 17:29 36.787856 -122.142732 145 9092ft 178kts
04-May-18 17:30 36.745567 -122.110500 148 9092ft 178kts
04-May-18 17:31 36.703278 -122.077868 147 9091ft 178kts
04-May-18 17:32 36.661290 -122.045023 147 9090ft 178kts
04-May-18 17:33 36.619452 -122.011933 147 9089ft 178kts
04-May-18 17:34 36.577888 -121.978324 146 9087ft 176kts
04-May-18 17:35 36.536949 -121.944720 146 9088ft 176kts
04-May-18 17:36 36.496045 -121.910783 146 9086ft 176kts
04-May-18 17:37 36.455170 -121.876732 146 9087ft 177kts
04-May-18 17:38 36.414462 -121.842291 145 9087ft 177kts
04-May-18 17:39 36.373661 -121.807710 145 9086ft 177kts
04-May-18 17:40 36.332292 -121.774591 147 9085ft 177kts
04-May-18 17:41 36.291705 -121.740176 143 9085ft 177kts
04-May-18 17:42 36.252155 -121.703372 143 9084ft 177kts
04-May-18 17:43 36.212737 -121.666732 144 9083ft 177kts
04-May-18 17:44 36.171702 -121.633184 156 9084ft 176kts
04-May-18 17:45 36.127747 -121.605686 157 9082ft 176kts
04-May-18 17:46 36.083458 -121.579518 156 9081ft 177kts
04-May-18 17:47 36.039025 -121.553663 153 9079ft 176kts
04-May-18 17:48 35.994478 -121.527730 156 9077ft 176kts
04-May-18 17:49 35.950107 -121.501878 155 9076ft 176kts
04-May-18 17:50 35.905743 -121.475338 156 9074ft 176kts
04-May-18 17:51 35.861477 -121.449241 155 9072ft 176kts
04-May-18 17:52 35.817539 -121.422748 155 9070ft 175kts
04-May-18 17:53 35.772718 -121.398347 159 9059ft 175kts
04-May-18 17:54 35.727696 -121.375272 158 9058ft 175kts
04-May-18 17:55 35.682850 -121.352312 159 9057ft 174kts
04-May-18 17:56 35.637931 -121.329142 158 9047ft 174kts
04-May-18 17:57 35.593265 -121.305840 159 9047ft 174kts
04-May-18 17:58 35.559917 -121.264494 124 9046ft 174kts
04-May-18 17:59 35.532031 -121.216187 124 9109ft 174kts
04-May-18 18:00 35.504065 -121.167680 123 9107ft 174kts
04-May-18 18:01 35.476355 -121.118741 123 9107ft 174kts
04-May-18 18:02 35.448773 -121.070220 123 9105ft 173kts
04-May-18 18:03 35.421556 -121.021389 123 9026ft 172kts
04-May-18 18:04 35.414737 -120.968154 61 8181ft 170kts
04-May-18 18:05 35.434055 -120.914490 63 7113ft 170kts
04-May-18 18:06 35.452853 -120.861426 59 5975ft 166kts
04-May-18 18:07 35.470890 -120.810454 61 5078ft 149kts
04-May-18 18:08 35.485264 -120.766439 63 4866ft 140kts
04-May-18 18:09 35.500680 -120.719246 63 4135ft 146kts
04-May-18 18:10 35.514344 -120.675083 67 4150ft 139kts
04-May-18 18:11 35.487142 -120.651228 219 4287ft 160kts
04-May-18 18:12 35.459831 -120.694829 240 4095ft 159kts
04-May-18 18:13 35.436862 -120.740570 243 4029ft 158kts
04-May-18 18:14 35.416107 -120.785450 262 4166ft 134kts
04-May-18 18:15 35.409063 -120.832926 267 4085ft 138kts
04-May-18 18:16 35.402182 -120.876741 266 4041ft 127kts
04-May-18 18:17 35.375891 -120.892578 115 3299ft 168kts
04-May-18 18:18 35.353583 -120.846207 124 3025ft 156kts
04-May-18 18:19 35.328264 -120.802490 120 2471ft 146kts
04-May-18 18:20 35.309650 -120.768751 121 2461ft 107kts
04-May-18 18:21 35.293282 -120.739520 119 2080ft 100kts
04-May-18 18:22 35.277555 -120.711262 127 1501ft 95kts
04-May-18 18:23 35.262412 -120.684925 128 954ft 92kts
04-May-18 18:24 35.248018 -120.659437 124 470ft 91kts
04-May-18 18:25 35.236479 -120.639422 123 215ft 23kts
04-May-18 18:25 35.235858 -120.636926 41 215ft 10kts
04-May-18 18:26 35.235858 -120.636926 41 215ft 10kts
04-May-18 18:27 35.235858 -120.636926 41 215ft 10kts

Navigation Log

Ident Type
Flight plan parsing failed, navigation log unavailable